sensor_id;sensor_type;location;lat;lon;timestamp;pressure;altitude;pressure_sealevel;temperature;humidity
40612;BME280;26317;44.894;20.286;2023-02-10T00:02:03;102938.31;;;-0.39;62.00
40612;BME280;26317;44.894;20.286;2023-02-10T00:04:36;102925.44;;;-0.42;61.89
40612;BME280;26317;44.894;20.286;2023-02-10T00:07:06;102922.22;;;-0.46;62.04
40612;BME280;26317;44.894;20.286;2023-02-10T00:09:37;102895.03;;;-0.65;61.94
40612;BME280;26317;44.894;20.286;2023-02-10T00:12:07;102925.56;;;-0.53;62.12
40612;BME280;26317;44.894;20.286;2023-02-10T00:14:38;102921.53;;;-0.57;62.40
40612;BME280;26317;44.894;20.286;2023-02-10T00:17:08;102923.75;;;-0.62;62.48
40612;BME280;26317;44.894;20.286;2023-02-10T00:19:42;102917.66;;;-0.63;62.42
40612;BME280;26317;44.894;20.286;2023-02-10T00:22:12;102920.56;;;-0.56;62.41
40612;BME280;26317;44.894;20.286;2023-02-10T00:24:42;102917.94;;;-0.56;62.59
40612;BME280;26317;44.894;20.286;2023-02-10T00:27:12;102920.56;;;-0.56;62.57
40612;BME280;26317;44.894;20.286;2023-02-10T00:29:47;102918.06;;;-0.58;62.35
40612;BME280;26317;44.894;20.286;2023-02-10T00:32:17;102924.31;;;-0.59;62.60
40612;BME280;26317;44.894;20.286;2023-02-10T00:34:52;102917.50;;;-0.61;62.63
40612;BME280;26317;44.894;20.286;2023-02-10T00:37:22;102931.94;;;-0.56;62.77
40612;BME280;26317;44.894;20.286;2023-02-10T00:40:09;102927.78;;;-0.58;62.76
40612;BME280;26317;44.894;20.286;2023-02-10T00:42:46;102894.78;;;-0.81;62.86
40612;BME280;26317;44.894;20.286;2023-02-10T00:45:22;102923.91;;;-0.64;62.73
40612;BME280;26317;44.894;20.286;2023-02-10T00:48:04;102936.91;;;-0.62;62.84
40612;BME280;26317;44.894;20.286;2023-02-10T00:50:46;102935.41;;;-0.65;62.77
40612;BME280;26317;44.894;20.286;2023-02-10T00:53:16;102935.69;;;-0.68;62.64
40612;BME280;26317;44.894;20.286;2023-02-10T00:55:47;102929.44;;;-0.67;62.80
40612;BME280;26317;44.894;20.286;2023-02-10T00:58:17;102924.03;;;-0.65;62.88
40612;BME280;26317;44.894;20.286;2023-02-10T01:00:47;102923.06;;;-0.64;63.03
40612;BME280;26317;44.894;20.286;2023-02-10T01:03:17;102925.56;;;-0.63;62.75
40612;BME280;26317;44.894;20.286;2023-02-10T01:05:50;102922.78;;;-0.61;62.51
40612;BME280;26317;44.894;20.286;2023-02-10T01:08:21;102919.19;;;-0.60;62.29
40612;BME280;26317;44.894;20.286;2023-02-10T01:10:59;102921.69;;;-0.59;62.29
40612;BME280;26317;44.894;20.286;2023-02-10T01:13:30;102921.41;;;-0.56;62.55
40612;BME280;26317;44.894;20.286;2023-02-10T01:16:01;102908.94;;;-0.63;62.14
40612;BME280;26317;44.894;20.286;2023-02-10T01:18:36;102912.13;;;-0.60;62.35
40612;BME280;26317;44.894;20.286;2023-02-10T01:21:11;102884.53;;;-0.84;62.27
40612;BME280;26317;44.894;20.286;2023-02-10T01:23:42;102908.66;;;-0.60;62.60
40612;BME280;26317;44.894;20.286;2023-02-10T01:26:14;102906.97;;;-0.61;62.52
40612;BME280;26317;44.894;20.286;2023-02-10T01:28:44;102895.34;;;-0.68;62.37
40612;BME280;26317;44.894;20.286;2023-02-10T01:31:17;102901.03;;;-0.63;62.32
40612;BME280;26317;44.894;20.286;2023-02-10T01:33:50;102897.69;;;-0.65;62.53
40612;BME280;26317;44.894;20.286;2023-02-10T01:36:26;102896.00;;;-0.66;62.57
40612;BME280;26317;44.894;20.286;2023-02-10T01:38:56;102901.28;;;-0.66;62.54
40612;BME280;26317;44.894;20.286;2023-02-10T01:41:27;102892.69;;;-0.68;62.63
40612;BME280;26317;44.894;20.286;2023-02-10T01:44:03;102890.06;;;-0.68;62.47
40612;BME280;26317;44.894;20.286;2023-02-10T01:46:34;102888.53;;;-0.71;62.51
40612;BME280;26317;44.894;20.286;2023-02-10T01:49:09;102895.63;;;-0.71;62.56
40612;BME280;26317;44.894;20.286;2023-02-10T01:51:49;102895.19;;;-0.76;62.55
40612;BME280;26317;44.894;20.286;2023-02-10T01:54:24;102887.72;;;-0.81;62.62
40612;BME280;26317;44.894;20.286;2023-02-10T01:56:54;102883.69;;;-0.85;63.21
40612;BME280;26317;44.894;20.286;2023-02-10T01:59:26;102880.22;;;-0.85;63.44
40612;BME280;26317;44.894;20.286;2023-02-10T02:01:57;102817.16;;;-1.25;63.21
40612;BME280;26317;44.894;20.286;2023-02-10T02:04:37;102882.13;;;-0.87;63.20
40612;BME280;26317;44.894;20.286;2023-02-10T02:07:12;102881.47;;;-0.89;63.24
40612;BME280;26317;44.894;20.286;2023-02-10T02:09:43;102872.84;;;-0.92;63.26
40612;BME280;26317;44.894;20.286;2023-02-10T02:12:19;102877.16;;;-0.90;63.56
40612;BME280;26317;44.894;20.286;2023-02-10T02:14:57;102873.00;;;-0.93;63.38
40612;BME280;26317;44.894;20.286;2023-02-10T02:17:39;102877.72;;;-0.97;63.41
40612;BME280;26317;44.894;20.286;2023-02-10T02:23:14;102877.72;;;-0.97;63.17
40612;BME280;26317;44.894;20.286;2023-02-10T02:29:09;102885.63;;;-0.97;63.42
40612;BME280;26317;44.894;20.286;2023-02-10T02:32:05;102883.94;;;-0.98;62.96
40612;BME280;26317;44.894;20.286;2023-02-10T02:34:39;102883.94;;;-0.98;63.07
40612;BME280;26317;44.894;20.286;2023-02-10T02:37:15;102877.72;;;-0.97;63.15
40612;BME280;26317;44.894;20.286;2023-02-10T02:39:48;102875.94;;;-0.96;63.09
40612;BME280;26317;44.894;20.286;2023-02-10T02:42:21;102830.44;;;-1.27;63.24
40612;BME280;26317;44.894;20.286;2023-02-10T02:44:55;102857.91;;;-1.01;63.28
40612;BME280;26317;44.894;20.286;2023-02-10T02:47:47;102864.28;;;-0.94;63.29
40612;BME280;26317;44.894;20.286;2023-02-10T02:50:27;102866.91;;;-0.94;63.27
40612;BME280;26317;44.894;20.286;2023-02-10T02:53:10;102874.81;;;-0.94;63.04
40612;BME280;26317;44.894;20.286;2023-02-10T02:55:52;102873.69;;;-0.91;63.27
40612;BME280;26317;44.894;20.286;2023-02-10T02:58:35;102868.84;;;-0.96;63.02
40612;BME280;26317;44.894;20.286;2023-02-10T03:01:13;102878.56;;;-0.96;63.23
40612;BME280;26317;44.894;20.286;2023-02-10T03:03:47;102882.16;;;-0.97;63.23
40612;BME280;26317;44.894;20.286;2023-02-10T03:06:17;102888.09;;;-0.95;63.27
40612;BME280;26317;44.894;20.286;2023-02-10T03:08:48;102894.50;;;-0.98;63.46
40612;BME280;26317;44.894;20.286;2023-02-10T03:11:18;102897.81;;;-0.96;63.43
40612;BME280;26317;44.894;20.286;2023-02-10T03:13:48;102889.09;;;-0.96;62.86
40612;BME280;26317;44.894;20.286;2023-02-10T03:16:18;102886.16;;;-1.03;62.83
40612;BME280;26317;44.894;20.286;2023-02-10T03:18:54;102894.47;;;-1.07;63.33
40612;BME280;26317;44.894;20.286;2023-02-10T03:21:24;102884.22;;;-1.10;63.27
40612;BME280;26317;44.894;20.286;2023-02-10T03:23:54;102891.28;;;-1.11;63.67
40612;BME280;26317;44.894;20.286;2023-02-10T03:26:25;102891.13;;;-1.19;63.49
40612;BME280;26317;44.894;20.286;2023-02-10T03:28:55;102894.72;;;-1.20;63.59
40612;BME280;26317;44.894;20.286;2023-02-10T03:31:28;102886.81;;;-1.29;63.97
40612;BME280;26317;44.894;20.286;2023-02-10T03:34:03;102896.63;;;-1.31;64.51
40612;BME280;26317;44.894;20.286;2023-02-10T03:36:34;102894.13;;;-1.43;64.65
40612;BME280;26317;44.894;20.286;2023-02-10T03:39:04;102904.78;;;-1.44;65.07
40612;BME280;26317;44.894;20.286;2023-02-10T03:41:34;102905.44;;;-1.52;65.20
40612;BME280;26317;44.894;20.286;2023-02-10T03:44:07;102911.56;;;-1.51;65.80
40612;BME280;26317;44.894;20.286;2023-02-10T03:46:37;102918.16;;;-1.57;65.88
40612;BME280;26317;44.894;20.286;2023-02-10T03:49:12;102911.22;;;-1.67;65.94
40612;BME280;26317;44.894;20.286;2023-02-10T03:51:43;102916.31;;;-1.66;66.23
40612;BME280;26317;44.894;20.286;2023-02-10T03:54:13;102915.31;;;-1.74;66.32
40612;BME280;26317;44.894;20.286;2023-02-10T03:56:43;102926.94;;;-1.77;66.82
40612;BME280;26317;44.894;20.286;2023-02-10T03:59:15;102917.38;;;-1.78;66.68
40612;BME280;26317;44.894;20.286;2023-02-10T04:01:45;102879.78;;;-1.99;66.63
40612;BME280;26317;44.894;20.286;2023-02-10T04:04:18;102927.22;;;-1.80;66.73
40612;BME280;26317;44.894;20.286;2023-02-10T04:06:50;102923.75;;;-1.80;67.05
40612;BME280;26317;44.894;20.286;2023-02-10T04:09:20;102912.66;;;-1.84;67.28
40612;BME280;26317;44.894;20.286;2023-02-10T04:11:52;102924.53;;;-1.90;67.22
40612;BME280;26317;44.894;20.286;2023-02-10T04:14:22;102912.72;;;-1.95;66.96
40612;BME280;26317;44.894;20.286;2023-02-10T04:16:52;102891.59;;;-2.14;67.14
40612;BME280;26317;44.894;20.286;2023-02-10T04:19:27;102914.22;;;-2.02;67.57
40612;BME280;26317;44.894;20.286;2023-02-10T04:21:57;102893.88;;;-2.21;67.76
40612;BME280;26317;44.894;20.286;2023-02-10T04:24:27;102912.47;;;-2.13;67.79
40612;BME280;26317;44.894;20.286;2023-02-10T04:27:00;102910.94;;;-2.15;67.63
40612;BME280;26317;44.894;20.286;2023-02-10T04:29:30;102919.34;;;-2.01;68.21
40612;BME280;26317;44.894;20.286;2023-02-10T04:32:00;102921.72;;;-1.98;68.24
40612;BME280;26317;44.894;20.286;2023-02-10T04:34:33;102915.63;;;-1.98;68.04
40612;BME280;26317;44.894;20.286;2023-02-10T04:37:04;102914.91;;;-2.00;67.71
40612;BME280;26317;44.894;20.286;2023-02-10T04:39:34;102913.84;;;-1.98;68.09
40612;BME280;26317;44.894;20.286;2023-02-10T04:42:05;102878.84;;;-2.19;68.30
40612;BME280;26317;44.894;20.286;2023-02-10T04:44:39;102876.91;;;-2.17;67.52
40612;BME280;26317;44.894;20.286;2023-02-10T04:47:15;102925.75;;;-1.94;67.66
40612;BME280;26317;44.894;20.286;2023-02-10T04:49:54;102937.09;;;-1.93;67.68
40612;BME280;26317;44.894;20.286;2023-02-10T04:52:33;102937.22;;;-1.95;67.67
40612;BME280;26317;44.894;20.286;2023-02-10T04:55:17;102942.03;;;-2.00;67.59
40612;BME280;26317;44.894;20.286;2023-02-10T04:57:50;102933.72;;;-2.05;67.61
40612;BME280;26317;44.894;20.286;2023-02-10T05:00:28;102927.56;;;-2.15;67.92
40612;BME280;26317;44.894;20.286;2023-02-10T05:02:59;102942.69;;;-2.07;67.61
40612;BME280;26317;44.894;20.286;2023-02-10T05:05:34;102944.47;;;-2.08;67.81
40612;BME280;26317;44.894;20.286;2023-02-10T05:08:04;102946.41;;;-2.10;67.92
40612;BME280;26317;44.894;20.286;2023-02-10T05:10:36;102952.34;;;-2.08;68.04
40612;BME280;26317;44.894;20.286;2023-02-10T05:13:06;102952.88;;;-2.14;67.94
40612;BME280;26317;44.894;20.286;2023-02-10T05:15:36;102955.63;;;-2.15;67.89
40612;BME280;26317;44.894;20.286;2023-02-10T05:18:08;102964.25;;;-2.13;67.87
40612;BME280;26317;44.894;20.286;2023-02-10T05:20:41;102955.91;;;-2.18;68.00
40612;BME280;26317;44.894;20.286;2023-02-10T05:23:11;102966.69;;;-2.21;68.18
40612;BME280;26317;44.894;20.286;2023-02-10T05:25:41;102969.41;;;-2.23;68.18
40612;BME280;26317;44.894;20.286;2023-02-10T05:28:14;102957.63;;;-2.28;68.43
40612;BME280;26317;44.894;20.286;2023-02-10T05:30:46;102971.94;;;-2.21;68.90
40612;BME280;26317;44.894;20.286;2023-02-10T05:33:17;102975.38;;;-2.21;68.67
40612;BME280;26317;44.894;20.286;2023-02-10T05:35:50;102978.72;;;-2.19;68.48
40612;BME280;26317;44.894;20.286;2023-02-10T05:38:20;102976.34;;;-2.22;68.54
40612;BME280;26317;44.894;20.286;2023-02-10T05:40:50;102969.41;;;-2.23;68.35
40612;BME280;26317;44.894;20.286;2023-02-10T05:43:20;102965.13;;;-2.24;68.13
40612;BME280;26317;44.894;20.286;2023-02-10T05:45:50;102969.53;;;-2.24;68.34
40612;BME280;26317;44.894;20.286;2023-02-10T05:48:20;102972.06;;;-2.23;68.59
40612;BME280;26317;44.894;20.286;2023-02-10T05:50:53;102982.44;;;-2.21;68.47
40612;BME280;26317;44.894;20.286;2023-02-10T05:53:24;102968.47;;;-2.22;68.49
40612;BME280;26317;44.894;20.286;2023-02-10T05:55:54;102986.16;;;-2.24;68.50
40612;BME280;26317;44.894;20.286;2023-02-10T05:58:25;102982.69;;;-2.24;69.21
40612;BME280;26317;44.894;20.286;2023-02-10T06:01:06;102967.47;;;-2.42;69.12
40612;BME280;26317;44.894;20.286;2023-02-10T06:03:37;103000.69;;;-2.20;69.09
40612;BME280;26317;44.894;20.286;2023-02-10T06:06:12;102997.38;;;-2.22;69.50
40612;BME280;26317;44.894;20.286;2023-02-10T06:08:43;102969.59;;;-2.36;69.13
40612;BME280;26317;44.894;20.286;2023-02-10T06:11:22;102991.97;;;-2.20;69.13
40612;BME280;26317;44.894;20.286;2023-02-10T06:13:53;102998.06;;;-2.20;69.05
40612;BME280;26317;44.894;20.286;2023-02-10T06:16:25;102998.34;;;-2.23;69.26
40612;BME280;26317;44.894;20.286;2023-02-10T06:18:59;103004.75;;;-2.16;69.57
40612;BME280;26317;44.894;20.286;2023-02-10T06:21:35;103005.09;;;-2.09;69.05
40612;BME280;26317;44.894;20.286;2023-02-10T06:24:09;103017.13;;;-2.07;69.07
40612;BME280;26317;44.894;20.286;2023-02-10T06:26:40;103015.06;;;-2.03;69.21
40612;BME280;26317;44.894;20.286;2023-02-10T06:29:11;103014.81;;;-2.00;69.18
40612;BME280;26317;44.894;20.286;2023-02-10T06:31:46;103021.28;;;-2.04;69.19
40612;BME280;26317;44.894;20.286;2023-02-10T06:34:21;103023.13;;;-2.05;69.45
40612;BME280;26317;44.894;20.286;2023-02-10T06:36:55;103020.06;;;-2.00;69.22
40612;BME280;26317;44.894;20.286;2023-02-10T06:39:29;103026.75;;;-1.96;69.41
40612;BME280;26317;44.894;20.286;2023-02-10T06:41:59;103020.41;;;-1.94;69.60
40612;BME280;26317;44.894;20.286;2023-02-10T06:44:32;103025.88;;;-1.86;69.56
40612;BME280;26317;44.894;20.286;2023-02-10T06:47:05;103036.84;;;-1.80;69.43
40612;BME280;26317;44.894;20.286;2023-02-10T06:49:38;103028.56;;;-1.76;69.58
40612;BME280;26317;44.894;20.286;2023-02-10T06:52:11;103019.38;;;-1.81;69.26
40612;BME280;26317;44.894;20.286;2023-02-10T06:54:45;103038.72;;;-1.71;69.48
40612;BME280;26317;44.894;20.286;2023-02-10T06:57:15;103036.38;;;-1.65;69.60
40612;BME280;26317;44.894;20.286;2023-02-10T06:59:52;103040.03;;;-1.56;69.50
40612;BME280;26317;44.894;20.286;2023-02-10T07:02:23;103039.25;;;-1.47;69.36
40612;BME280;26317;44.894;20.286;2023-02-10T07:05:00;103035.25;;;-1.42;69.20
40612;BME280;26317;44.894;20.286;2023-02-10T07:07:35;103026.28;;;-1.39;68.79
40612;BME280;26317;44.894;20.286;2023-02-10T07:10:06;103036.25;;;-1.33;68.23
40612;BME280;26317;44.894;20.286;2023-02-10T07:12:43;103044.22;;;-1.23;68.40
40612;BME280;26317;44.894;20.286;2023-02-10T07:15:16;103052.28;;;-1.15;68.13
40612;BME280;26317;44.894;20.286;2023-02-10T07:17:50;103047.75;;;-1.04;67.78
40612;BME280;26317;44.894;20.286;2023-02-10T07:20:20;103042.25;;;-1.01;67.65
40612;BME280;26317;44.894;20.286;2023-02-10T07:22:53;103047.97;;;-0.86;67.22
40612;BME280;26317;44.894;20.286;2023-02-10T07:25:26;103051.47;;;-0.76;66.82
40612;BME280;26317;44.894;20.286;2023-02-10T07:27:58;103052.59;;;-0.69;66.72
40612;BME280;26317;44.894;20.286;2023-02-10T07:30:28;103052.47;;;-0.67;66.01
40612;BME280;26317;44.894;20.286;2023-02-10T07:33:00;103061.66;;;-0.52;66.00
40612;BME280;26317;44.894;20.286;2023-02-10T07:35:32;103056.81;;;-0.47;65.81
40612;BME280;26317;44.894;20.286;2023-02-10T07:38:12;103041.94;;;-0.48;65.44
40612;BME280;26317;44.894;20.286;2023-02-10T07:40:45;103051.13;;;-0.33;65.45
40612;BME280;26317;44.894;20.286;2023-02-10T07:43:16;103044.88;;;-0.32;65.09
40612;BME280;26317;44.894;20.286;2023-02-10T07:45:55;103051.00;;;-0.22;64.98
40612;BME280;26317;44.894;20.286;2023-02-10T07:48:25;103053.63;;;-0.12;64.59
40612;BME280;26317;44.894;20.286;2023-02-10T07:50:55;103058.22;;;-0.05;64.22
40612;BME280;26317;44.894;20.286;2023-02-10T07:53:28;103058.91;;;-0.03;64.67
40612;BME280;26317;44.894;20.286;2023-02-10T07:55:58;103061.69;;;0.06;64.17
40612;BME280;26317;44.894;20.286;2023-02-10T07:58:29;103058.50;;;0.12;63.83
40612;BME280;26317;44.894;20.286;2023-02-10T08:00:59;103061.56;;;0.17;62.81
40612;BME280;26317;44.894;20.286;2023-02-10T08:03:34;103060.13;;;0.22;63.46
40612;BME280;26317;44.894;20.286;2023-02-10T08:06:05;103051.50;;;0.30;63.08
40612;BME280;26317;44.894;20.286;2023-02-10T08:08:38;103049.56;;;0.32;63.29
40612;BME280;26317;44.894;20.286;2023-02-10T08:11:08;103005.31;;;0.07;62.62
40612;BME280;26317;44.894;20.286;2023-02-10T08:13:38;103056.09;;;0.37;62.27
40612;BME280;26317;44.894;20.286;2023-02-10T08:16:09;103067.34;;;0.39;63.25
40612;BME280;26317;44.894;20.286;2023-02-10T08:18:39;103068.19;;;0.40;63.42
40612;BME280;26317;44.894;20.286;2023-02-10T08:21:09;103052.63;;;0.37;63.30
40612;BME280;26317;44.894;20.286;2023-02-10T08:23:42;103060.38;;;0.48;63.74
40612;BME280;26317;44.894;20.286;2023-02-10T08:26:13;103047.34;;;0.37;63.32
40612;BME280;26317;44.894;20.286;2023-02-10T08:28:43;103073.16;;;0.62;62.71
40612;BME280;26317;44.894;20.286;2023-02-10T08:31:13;103070.34;;;0.64;63.10
40612;BME280;26317;44.894;20.286;2023-02-10T08:33:43;103073.25;;;0.70;63.14
40612;BME280;26317;44.894;20.286;2023-02-10T08:36:15;103019.53;;;0.52;63.23
40612;BME280;26317;44.894;20.286;2023-02-10T08:38:49;103077.19;;;0.93;62.59
40612;BME280;26317;44.894;20.286;2023-02-10T08:41:20;103041.38;;;0.81;62.12
40612;BME280;26317;44.894;20.286;2023-02-10T08:43:50;103068.81;;;1.08;62.43
40612;BME280;26317;44.894;20.286;2023-02-10T08:46:20;103066.84;;;1.10;61.10
40612;BME280;26317;44.894;20.286;2023-02-10T08:48:51;103026.66;;;0.79;60.49
40612;BME280;26317;44.894;20.286;2023-02-10T08:51:21;103075.16;;;1.15;60.89
40612;BME280;26317;44.894;20.286;2023-02-10T08:53:54;103076.84;;;1.16;60.68
40612;BME280;26317;44.894;20.286;2023-02-10T08:56:24;103071.13;;;1.20;59.88
40612;BME280;26317;44.894;20.286;2023-02-10T08:58:55;103059.31;;;1.15;59.38
40612;BME280;26317;44.894;20.286;2023-02-10T09:01:25;103072.63;;;1.23;58.48
40612;BME280;26317;44.894;20.286;2023-02-10T09:03:56;103074.00;;;1.27;59.51
40612;BME280;26317;44.894;20.286;2023-02-10T09:06:29;103067.81;;;1.36;60.39
40612;BME280;26317;44.894;20.286;2023-02-10T09:09:02;103057.47;;;1.25;58.29
40612;BME280;26317;44.894;20.286;2023-02-10T09:11:32;103077.56;;;1.35;58.26
40612;BME280;26317;44.894;20.286;2023-02-10T09:14:03;103087.41;;;1.43;58.77
40612;BME280;26317;44.894;20.286;2023-02-10T09:16:34;103083.88;;;1.52;58.60
40612;BME280;26317;44.894;20.286;2023-02-10T09:19:04;103076.47;;;1.56;59.94
40612;BME280;26317;44.894;20.286;2023-02-10T09:21:37;103089.38;;;1.59;59.51
40612;BME280;26317;44.894;20.286;2023-02-10T09:24:16;103084.47;;;1.64;57.86
40612;BME280;26317;44.894;20.286;2023-02-10T09:26:46;103090.59;;;1.64;57.95
40612;BME280;26317;44.894;20.286;2023-02-10T09:29:16;103093.50;;;1.71;57.49
40612;BME280;26317;44.894;20.286;2023-02-10T09:31:46;103085.56;;;1.71;57.94
40612;BME280;26317;44.894;20.286;2023-02-10T09:34:17;103086.53;;;1.70;57.13
40612;BME280;26317;44.894;20.286;2023-02-10T09:36:47;103081.78;;;1.73;57.06
40612;BME280;26317;44.894;20.286;2023-02-10T09:39:20;103081.19;;;1.79;57.23
40612;BME280;26317;44.894;20.286;2023-02-10T09:41:59;103090.72;;;1.90;57.09
40612;BME280;26317;44.894;20.286;2023-02-10T09:44:34;103094.41;;;1.97;57.86
40612;BME280;26317;44.894;20.286;2023-02-10T09:47:28;103100.00;;;1.94;55.92
40612;BME280;26317;44.894;20.286;2023-02-10T09:53:11;103084.91;;;2.04;55.27
40612;BME280;26317;44.894;20.286;2023-02-10T09:55:48;103099.31;;;2.10;54.39
40612;BME280;26317;44.894;20.286;2023-02-10T09:58:23;103092.06;;;2.12;54.88
40612;BME280;26317;44.894;20.286;2023-02-10T10:00:57;103082.31;;;2.12;54.78
40612;BME280;26317;44.894;20.286;2023-02-10T10:03:40;103076.56;;;2.17;54.87
40612;BME280;26317;44.894;20.286;2023-02-10T10:06:20;103085.38;;;2.25;54.75
40612;BME280;26317;44.894;20.286;2023-02-10T10:09:03;103083.94;;;2.31;53.70
40612;BME280;26317;44.894;20.286;2023-02-10T10:11:42;103081.31;;;2.31;54.38
40612;BME280;26317;44.894;20.286;2023-02-10T10:14:17;103078.06;;;2.37;53.81
40612;BME280;26317;44.894;20.286;2023-02-10T10:17:08;103067.81;;;2.42;54.13
40612;BME280;26317;44.894;20.286;2023-02-10T10:19:52;103038.47;;;2.36;53.19
40612;BME280;26317;44.894;20.286;2023-02-10T10:22:36;103043.97;;;2.42;51.19
40612;BME280;26317;44.894;20.286;2023-02-10T10:25:26;103024.34;;;2.27;50.88
40612;BME280;26317;44.894;20.286;2023-02-10T10:28:08;103041.63;;;2.39;50.60
40612;BME280;26317;44.894;20.286;2023-02-10T10:30:46;103053.50;;;2.53;50.33
40612;BME280;26317;44.894;20.286;2023-02-10T10:33:22;103046.75;;;2.58;50.40
40612;BME280;26317;44.894;20.286;2023-02-10T10:35:52;103051.09;;;2.67;51.97
40612;BME280;26317;44.894;20.286;2023-02-10T10:38:31;103039.13;;;2.63;53.97
40612;BME280;26317;44.894;20.286;2023-02-10T10:41:05;103035.41;;;2.74;52.79
40612;BME280;26317;44.894;20.286;2023-02-10T10:43:44;103040.28;;;2.87;52.97
40612;BME280;26317;44.894;20.286;2023-02-10T10:46:20;103042.63;;;2.98;51.04
40612;BME280;26317;44.894;20.286;2023-02-10T10:48:54;103039.28;;;2.88;50.66
40612;BME280;26317;44.894;20.286;2023-02-10T10:51:25;103047.75;;;2.91;50.53
40612;BME280;26317;44.894;20.286;2023-02-10T10:53:57;103034.97;;;2.87;50.34
40612;BME280;26317;44.894;20.286;2023-02-10T10:56:34;103041.63;;;2.91;49.92
40612;BME280;26317;44.894;20.286;2023-02-10T10:59:14;103040.84;;;2.72;50.65
40612;BME280;26317;44.894;20.286;2023-02-10T11:01:47;103038.28;;;2.89;50.24
40612;BME280;26317;44.894;20.286;2023-02-10T11:04:21;103031.53;;;2.94;49.45
40612;BME280;26317;44.894;20.286;2023-02-10T11:06:52;103017.78;;;2.99;48.96
40612;BME280;26317;44.894;20.286;2023-02-10T11:09:29;103021.81;;;3.11;48.02
40612;BME280;26317;44.894;20.286;2023-02-10T11:12:04;103019.53;;;3.16;48.03
40612;BME280;26317;44.894;20.286;2023-02-10T11:14:41;103012.22;;;3.18;47.70
40612;BME280;26317;44.894;20.286;2023-02-10T11:17:22;103011.44;;;3.26;48.00
40612;BME280;26317;44.894;20.286;2023-02-10T11:19:54;103002.94;;;3.22;47.27
40612;BME280;26317;44.894;20.286;2023-02-10T11:22:24;103009.59;;;3.26;46.54
40612;BME280;26317;44.894;20.286;2023-02-10T11:24:56;103008.59;;;3.27;46.72
40612;BME280;26317;44.894;20.286;2023-02-10T11:27:26;103000.00;;;3.33;47.76
40612;BME280;26317;44.894;20.286;2023-02-10T11:29:59;102984.41;;;3.38;46.94
40612;BME280;26317;44.894;20.286;2023-02-10T11:32:32;102982.94;;;3.52;46.86
40612;BME280;26317;44.894;20.286;2023-02-10T11:35:13;102988.13;;;3.61;46.14
40612;BME280;26317;44.894;20.286;2023-02-10T11:37:51;102988.28;;;3.68;45.67
40612;BME280;26317;44.894;20.286;2023-02-10T11:40:25;102981.16;;;3.68;46.25
40612;BME280;26317;44.894;20.286;2023-02-10T11:42:58;102995.44;;;3.76;45.19
40612;BME280;26317;44.894;20.286;2023-02-10T11:45:32;102988.47;;;3.75;45.83
40612;BME280;26317;44.894;20.286;2023-02-10T11:48:04;102985.31;;;3.79;46.45
40612;BME280;26317;44.894;20.286;2023-02-10T11:50:35;102984.81;;;3.76;45.78
40612;BME280;26317;44.894;20.286;2023-02-10T11:53:13;102988.81;;;3.88;45.54
40612;BME280;26317;44.894;20.286;2023-02-10T11:55:55;102986.44;;;3.93;45.54
40612;BME280;26317;44.894;20.286;2023-02-10T11:58:41;102987.63;;;3.90;45.43
40612;BME280;26317;44.894;20.286;2023-02-10T12:01:51;102983.78;;;3.93;44.43
40612;BME280;26317;44.894;20.286;2023-02-10T12:07:40;102940.00;;;3.89;46.09
40612;BME280;26317;44.894;20.286;2023-02-10T12:10:18;102986.75;;;4.22;45.86
40612;BME280;26317;44.894;20.286;2023-02-10T12:12:59;102982.44;;;4.29;43.84
40612;BME280;26317;44.894;20.286;2023-02-10T12:15:40;102983.59;;;4.27;44.45
40612;BME280;26317;44.894;20.286;2023-02-10T12:18:25;102990.09;;;4.16;44.28
40612;BME280;26317;44.894;20.286;2023-02-10T12:21:10;102990.75;;;4.10;44.31
40612;BME280;26317;44.894;20.286;2023-02-10T12:24:01;102981.94;;;4.09;43.39
40612;BME280;26317;44.894;20.286;2023-02-10T12:26:41;102978.16;;;4.04;43.64
40612;BME280;26317;44.894;20.286;2023-02-10T12:29:25;102975.84;;;3.93;42.88
40612;BME280;26317;44.894;20.286;2023-02-10T12:32:08;102971.53;;;3.84;43.02
40612;BME280;26317;44.894;20.286;2023-02-10T12:34:54;102977.84;;;3.75;42.82
40612;BME280;26317;44.894;20.286;2023-02-10T12:37:37;102972.03;;;3.95;42.32
40612;BME280;26317;44.894;20.286;2023-02-10T12:40:30;102938.16;;;3.89;41.28
40612;BME280;26317;44.894;20.286;2023-02-10T12:43:18;102955.09;;;4.12;40.85
40612;BME280;26317;44.894;20.286;2023-02-10T12:45:55;102965.31;;;4.40;40.82
40612;BME280;26317;44.894;20.286;2023-02-10T12:48:32;102958.81;;;4.50;40.15
40612;BME280;26317;44.894;20.286;2023-02-10T12:51:20;102924.78;;;4.46;39.92
40612;BME280;26317;44.894;20.286;2023-02-10T12:54:00;102939.63;;;4.71;39.21
40612;BME280;26317;44.894;20.286;2023-02-10T12:56:35;102943.41;;;4.77;38.63
40612;BME280;26317;44.894;20.286;2023-02-10T12:59:13;102887.72;;;4.52;38.85
40612;BME280;26317;44.894;20.286;2023-02-10T13:01:47;102948.91;;;4.75;38.60
40612;BME280;26317;44.894;20.286;2023-02-10T13:04:23;102951.41;;;4.69;38.56
40612;BME280;26317;44.894;20.286;2023-02-10T13:07:01;102954.56;;;4.72;39.29
40612;BME280;26317;44.894;20.286;2023-02-10T13:09:39;102950.72;;;4.83;37.56
40612;BME280;26317;44.894;20.286;2023-02-10T13:12:15;102947.00;;;4.92;38.06
40612;BME280;26317;44.894;20.286;2023-02-10T13:14:51;102945.94;;;5.01;37.04
40612;BME280;26317;44.894;20.286;2023-02-10T13:17:23;102957.19;;;5.11;37.92
40612;BME280;26317;44.894;20.286;2023-02-10T13:19:59;102953.66;;;5.19;36.93
40612;BME280;26317;44.894;20.286;2023-02-10T13:22:42;102951.97;;;5.26;36.80
40612;BME280;26317;44.894;20.286;2023-02-10T13:25:17;102941.13;;;5.27;36.21
40612;BME280;26317;44.894;20.286;2023-02-10T13:27:57;102945.28;;;5.30;36.67
40612;BME280;26317;44.894;20.286;2023-02-10T13:30:47;102951.19;;;5.17;37.02
40612;BME280;26317;44.894;20.286;2023-02-10T13:33:25;102919.03;;;5.04;36.19